createdAt,value
2018-10-07T00:01:02.807Z,10.07
2018-10-07T00:03:31.621Z,9.77
2018-10-07T00:06:00.416Z,11.03
2018-10-07T00:08:29.568Z,10.17
2018-10-07T00:10:58.393Z,9.70
2018-10-07T00:13:27.288Z,8.70
2018-10-07T00:15:56.150Z,9.30
2018-10-07T00:18:24.923Z,10.30
2018-10-07T00:20:53.708Z,9.60
2018-10-07T00:23:22.552Z,9.90
2018-10-07T00:25:51.331Z,9.60
2018-10-07T00:28:20.143Z,9.73
2018-10-07T00:30:49.052Z,10.97
2018-10-07T00:33:17.822Z,10.23
2018-10-07T00:35:46.670Z,10.63
2018-10-07T00:38:15.417Z,12.93
2018-10-07T00:40:44.183Z,13.90
2018-10-07T00:43:13.020Z,17.03
2018-10-07T00:45:41.811Z,13.27
2018-10-07T00:48:10.717Z,14.87
2018-10-07T00:50:39.505Z,13.17
2018-10-07T00:53:08.329Z,16.47
2018-10-07T00:55:37.119Z,14.40
2018-10-07T00:58:06.311Z,13.73
2018-10-07T01:00:35.189Z,14.57
2018-10-07T01:03:03.986Z,14.73
2018-10-07T01:05:32.801Z,14.17
2018-10-07T01:08:01.612Z,17.17
2018-10-07T01:10:30.417Z,13.60
2018-10-07T01:12:59.227Z,14.40
2018-10-07T01:15:28.016Z,13.50
2018-10-07T01:17:56.811Z,16.93
2018-10-07T01:20:25.653Z,13.43
2018-10-07T01:22:54.424Z,16.30
2018-10-07T01:25:23.232Z,15.13
2018-10-07T01:27:52.001Z,14.73
2018-10-07T01:30:22.884Z,15.17
2018-10-07T01:32:53.584Z,15.50
2018-10-07T01:35:22.384Z,18.53
2018-10-07T01:37:51.322Z,15.33
2018-10-07T01:40:20.531Z,14.70
2018-10-07T01:42:49.397Z,16.60
2018-10-07T01:45:18.285Z,17.03
2018-10-07T01:47:47.217Z,15.50
2018-10-07T01:50:16.073Z,16.07
2018-10-07T01:52:44.865Z,15.83
2018-10-07T01:55:13.652Z,18.00
2018-10-07T01:57:42.569Z,18.13
2018-10-07T02:00:11.457Z,16.50
2018-10-07T02:02:40.287Z,18.17
2018-10-07T02:05:09.143Z,15.87
2018-10-07T02:07:38.132Z,17.03
2018-10-07T02:10:06.976Z,13.50
2018-10-07T02:12:35.756Z,13.40
2018-10-07T02:15:04.672Z,13.03
2018-10-07T02:17:33.509Z,13.23
2018-10-07T02:20:02.327Z,12.10
2018-10-07T02:22:31.125Z,12.37
2018-10-07T02:24:59.993Z,13.13
2018-10-07T02:27:28.785Z,12.17
2018-10-07T02:29:57.614Z,15.43
2018-10-07T02:32:26.404Z,12.23
2018-10-07T02:34:55.239Z,13.60
2018-10-07T02:37:24.052Z,13.33
2018-10-07T02:39:52.869Z,14.73
2018-10-07T02:42:21.708Z,19.07
2018-10-07T02:44:50.519Z,15.53
2018-10-07T02:47:19.772Z,17.23
2018-10-07T02:49:48.668Z,18.70
2018-10-07T02:52:22.637Z,15.63
2018-10-07T02:54:51.549Z,15.90
2018-10-07T02:57:20.478Z,13.67
2018-10-07T02:59:49.968Z,15.67
2018-10-07T03:02:18.861Z,16.10
2018-10-07T03:04:47.753Z,17.20
2018-10-07T03:07:16.662Z,16.93
2018-10-07T03:09:45.864Z,17.77
2018-10-07T03:12:14.660Z,17.80
2018-10-07T03:14:43.442Z,16.90
2018-10-07T03:17:12.276Z,18.13
2018-10-07T03:19:41.106Z,19.63
2018-10-07T03:22:09.961Z,18.57
2018-10-07T03:24:38.731Z,19.27
2018-10-07T03:27:07.532Z,19.10
2018-10-07T03:29:36.455Z,19.47
2018-10-07T03:32:05.469Z,23.97
2018-10-07T03:34:34.321Z,19.17
2018-10-07T03:37:03.205Z,19.90
2018-10-07T03:39:32.011Z,19.93
2018-10-07T03:42:00.751Z,19.60
2018-10-07T03:44:29.568Z,19.80
2018-10-07T03:46:58.360Z,21.07
2018-10-07T03:49:27.140Z,19.33
2018-10-07T03:51:56.332Z,20.00
2018-10-07T03:54:25.132Z,24.07
2018-10-07T03:56:54.005Z,21.00
2018-10-07T03:59:22.942Z,20.03
2018-10-07T04:01:51.840Z,18.93
2018-10-07T04:04:20.688Z,20.60
2018-10-07T04:06:49.689Z,17.23
2018-10-07T04:09:18.484Z,18.13
2018-10-07T04:11:47.297Z,18.33
2018-10-07T04:14:16.101Z,19.87
2018-10-07T04:16:45.752Z,20.93
2018-10-07T04:19:14.514Z,19.63
2018-10-07T04:21:51.681Z,18.93
2018-10-07T04:24:20.532Z,18.37
2018-10-07T04:26:49.408Z,20.17
2018-10-07T04:29:18.204Z,22.67
2018-10-07T04:31:47.020Z,20.77
2018-10-07T04:34:15.841Z,22.33
2018-10-07T04:36:44.617Z,21.63
2018-10-07T04:39:14.028Z,28.23
2018-10-07T04:41:43.622Z,23.03
2018-10-07T04:44:12.513Z,22.30
2018-10-07T04:46:41.556Z,23.63
2018-10-07T04:49:10.411Z,24.23
2018-10-07T04:51:39.223Z,21.63
2018-10-07T04:54:08.060Z,22.37
2018-10-07T04:56:36.892Z,21.10
2018-10-07T04:59:05.687Z,21.87
2018-10-07T05:01:34.505Z,24.17
2018-10-07T05:04:03.324Z,22.67
2018-10-07T05:06:34.519Z,20.70
2018-10-07T05:09:06.520Z,18.20
2018-10-07T05:11:35.422Z,22.27
2018-10-07T05:14:06.133Z,24.80
2018-10-07T05:16:46.207Z,20.23
2018-10-07T05:19:15.104Z,22.43
2018-10-07T05:21:44.035Z,19.10
2018-10-07T05:24:12.876Z,19.20
2018-10-07T05:26:41.772Z,20.63
2018-10-07T05:29:10.716Z,22.10
2018-10-07T05:31:39.571Z,23.23
2018-10-07T05:34:08.357Z,26.03
2018-10-07T05:36:37.186Z,23.53
2018-10-07T05:39:08.371Z,21.00
2018-10-07T05:41:37.359Z,24.07
2018-10-07T05:44:06.211Z,25.30
2018-10-07T05:46:35.041Z,25.90
2018-10-07T05:49:03.933Z,23.90
2018-10-07T05:51:32.769Z,27.13
2018-10-07T05:54:01.592Z,25.50
2018-10-07T05:56:30.519Z,33.17
2018-10-07T05:58:59.499Z,25.73
2018-10-07T06:01:34.010Z,27.60
2018-10-07T06:04:27.608Z,25.83
2018-10-07T06:06:57.838Z,29.00
2018-10-07T06:09:29.523Z,27.40
2018-10-07T06:11:58.435Z,27.37
2018-10-07T06:14:38.457Z,25.10
2018-10-07T06:17:07.329Z,26.30
2018-10-07T06:19:36.257Z,28.87
2018-10-07T06:22:05.828Z,27.50
2018-10-07T06:24:36.977Z,26.53
2018-10-07T06:27:06.598Z,22.33
2018-10-07T06:29:36.227Z,25.17
2018-10-07T06:32:05.499Z,25.17
2018-10-07T06:34:34.388Z,24.20
2018-10-07T06:37:03.283Z,27.07
2018-10-07T06:39:32.555Z,28.80
2018-10-07T06:42:01.490Z,24.70
2018-10-07T06:44:30.408Z,25.20
2018-10-07T06:47:00.326Z,25.33
2018-10-07T06:49:29.306Z,23.67
2018-10-07T06:51:58.243Z,26.00
2018-10-07T06:54:27.055Z,31.17
2018-10-07T06:56:56.872Z,24.17
2018-10-07T06:59:25.780Z,22.77
2018-10-07T07:01:54.973Z,33.87
2018-10-07T07:04:23.817Z,33.60
2018-10-07T07:06:52.631Z,23.83
2018-10-07T07:09:21.469Z,21.07
2018-10-07T07:11:50.372Z,22.83
2018-10-07T07:14:19.220Z,22.37
2018-10-07T07:16:49.808Z,23.73
2018-10-07T07:19:18.588Z,25.13
2018-10-07T07:21:47.474Z,25.60
2018-10-07T07:24:16.322Z,25.33
2018-10-07T07:26:45.182Z,21.83
2018-10-07T07:29:14.007Z,20.77
2018-10-07T07:31:42.855Z,20.80
2018-10-07T07:34:11.668Z,23.60
2018-10-07T07:36:41.193Z,22.17
2018-10-07T07:39:10.329Z,22.23
2018-10-07T07:41:39.140Z,29.10
2018-10-07T07:44:08.058Z,24.77
2018-10-07T07:46:36.883Z,21.73
2018-10-07T07:49:05.852Z,25.40
2018-10-07T07:51:34.779Z,20.53
2018-10-07T07:54:03.600Z,22.20
2018-10-07T07:56:32.411Z,21.30
2018-10-07T07:59:01.240Z,20.83
2018-10-07T08:01:30.063Z,21.60
2018-10-07T08:03:58.937Z,21.30
2018-10-07T08:06:27.845Z,21.00
2018-10-07T08:08:56.902Z,20.00
2018-10-07T08:11:25.910Z,18.77
2018-10-07T08:13:54.756Z,25.70
2018-10-07T08:16:23.595Z,21.20
2018-10-07T08:18:52.421Z,22.90
2018-10-07T08:21:21.243Z,24.37
2018-10-07T08:23:50.142Z,18.10
2018-10-07T08:26:19.414Z,21.57
2018-10-07T08:28:48.777Z,21.27
2018-10-07T08:31:17.581Z,19.37
2018-10-07T08:33:46.392Z,19.17
2018-10-07T08:36:15.184Z,21.33
2018-10-07T08:38:44.049Z,20.30
2018-10-07T08:41:12.859Z,19.93
2018-10-07T08:43:41.648Z,20.20
2018-10-07T08:46:10.466Z,19.23
2018-10-07T08:48:39.343Z,19.70
2018-10-07T08:51:08.172Z,24.63
2018-10-07T08:53:37.242Z,18.43
2018-10-07T08:56:06.119Z,18.03
2018-10-07T08:58:35.096Z,16.97
2018-10-07T09:01:03.989Z,21.13
2018-10-07T09:03:33.030Z,20.50
2018-10-07T09:06:01.867Z,21.23
2018-10-07T09:08:30.798Z,20.07
2018-10-07T09:10:59.704Z,19.63
2018-10-07T09:13:28.565Z,19.97
2018-10-07T09:15:57.509Z,17.80
2018-10-07T09:18:26.308Z,22.33
2018-10-07T09:20:55.174Z,17.67
2018-10-07T09:23:24.173Z,21.00
2018-10-07T09:25:53.111Z,17.73
2018-10-07T09:28:22.081Z,18.70
2018-10-07T09:30:50.915Z,15.87
2018-10-07T09:33:19.698Z,15.97
2018-10-07T09:35:48.519Z,18.83
2018-10-07T09:38:17.477Z,14.63
2018-10-07T09:40:47.294Z,14.23
2018-10-07T09:43:16.256Z,15.73
2018-10-07T09:45:45.082Z,16.17
2018-10-07T09:48:14.070Z,15.17
2018-10-07T09:50:42.941Z,16.37
2018-10-07T09:53:11.753Z,13.30
2018-10-07T09:55:40.585Z,12.90
2018-10-07T09:58:09.401Z,12.37
2018-10-07T10:00:39.608Z,11.87
2018-10-07T10:03:09.198Z,16.70
2018-10-07T10:05:38.024Z,12.30
2018-10-07T10:08:07.153Z,13.00
2018-10-07T10:10:36.011Z,11.03
2018-10-07T10:13:05.244Z,11.53
2018-10-07T10:15:34.100Z,11.40
2018-10-07T10:18:06.465Z,11.13
2018-10-07T10:20:44.580Z,12.70
2018-10-07T10:23:24.492Z,12.97
2018-10-07T10:26:17.057Z,13.50
2018-10-07T10:28:51.737Z,9.83
2018-10-07T10:31:32.963Z,9.50
2018-10-07T10:34:09.241Z,11.37
2018-10-07T10:36:48.044Z,13.73
2018-10-07T10:39:56.429Z,17.83
2018-10-07T10:42:49.432Z,13.07
2018-10-07T10:45:38.403Z,11.03
2018-10-07T10:48:30.177Z,15.13
2018-10-07T10:51:04.466Z,8.90
2018-10-07T10:53:42.616Z,10.00
2018-10-07T10:56:30.888Z,8.77
2018-10-07T11:01:14.145Z,9.80
2018-10-07T11:04:58.924Z,11.13
2018-10-07T11:08:06.154Z,8.33
2018-10-07T11:10:41.886Z,7.30
2018-10-07T11:13:19.894Z,8.07
2018-10-07T11:16:00.485Z,8.53
2018-10-07T11:19:07.449Z,8.17
2018-10-07T11:23:50.873Z,8.97
2018-10-07T11:28:30.749Z,7.90
2018-10-07T11:31:13.360Z,9.40
2018-10-07T11:34:30.025Z,8.03
2018-10-07T11:38:20.752Z,7.73
2018-10-07T11:41:00.718Z,7.73
2018-10-07T11:43:39.117Z,6.83
2018-10-07T11:48:22.194Z,7.47
2018-10-07T11:51:07.510Z,9.33
2018-10-07T11:53:40.370Z,8.20
2018-10-07T11:56:09.213Z,20.40
2018-10-07T11:58:38.152Z,20.67
2018-10-07T12:01:07.225Z,8.37
2018-10-07T12:03:36.510Z,8.23
2018-10-07T12:06:05.497Z,7.90
2018-10-07T12:08:34.564Z,11.53
2018-10-07T12:11:03.573Z,10.17
2018-10-07T12:13:32.721Z,8.00
2018-10-07T12:16:01.823Z,5.97
2018-10-07T12:18:30.924Z,8.17
2018-10-07T12:20:59.887Z,5.67
2018-10-07T12:23:28.877Z,10.97
2018-10-07T12:26:04.484Z,6.93
2018-10-07T12:28:33.494Z,8.73
2018-10-07T12:31:02.474Z,15.03
2018-10-07T12:33:31.480Z,12.40
2018-10-07T12:36:00.419Z,5.90
2018-10-07T12:38:29.321Z,6.00
2018-10-07T12:40:58.365Z,8.77
2018-10-07T12:43:27.299Z,6.90
2018-10-07T12:45:56.441Z,8.80
2018-10-07T12:48:25.414Z,5.07
2018-10-07T12:50:54.460Z,5.73
2018-10-07T12:53:23.485Z,4.70
2018-10-07T12:55:52.540Z,5.10
2018-10-07T12:58:21.520Z,6.33
2018-10-07T13:00:50.544Z,6.00
2018-10-07T13:03:19.535Z,6.67
2018-10-07T13:05:48.754Z,5.53
2018-10-07T13:08:17.758Z,6.30
2018-10-07T13:10:46.729Z,5.77
2018-10-07T13:13:15.701Z,6.03
2018-10-07T13:15:44.795Z,6.30
2018-10-07T13:18:13.766Z,8.17
2018-10-07T13:20:42.793Z,8.13
2018-10-07T13:23:11.836Z,6.47
2018-10-07T13:25:40.793Z,6.47
2018-10-07T13:28:09.697Z,5.37
2018-10-07T13:30:38.758Z,7.17
2018-10-07T13:33:07.699Z,6.40
2018-10-07T13:35:36.678Z,5.27
2018-10-07T13:38:05.692Z,9.17
2018-10-07T13:40:34.594Z,6.63
2018-10-07T13:43:03.647Z,6.37
2018-10-07T13:45:32.685Z,8.07
2018-10-07T13:48:01.776Z,8.63
2018-10-07T13:50:30.815Z,6.50
2018-10-07T13:52:59.802Z,5.07
2018-10-07T13:55:28.991Z,5.83
2018-10-07T13:57:57.915Z,5.10
2018-10-07T14:00:26.904Z,5.27
2018-10-07T14:02:55.864Z,6.43
2018-10-07T14:05:24.789Z,6.27
2018-10-07T14:07:53.805Z,5.90
2018-10-07T14:10:22.777Z,7.73
2018-10-07T14:12:51.760Z,7.03
2018-10-07T14:15:20.772Z,14.30
2018-10-07T14:17:49.725Z,6.93
2018-10-07T14:20:18.917Z,6.60
2018-10-07T14:22:48.056Z,7.00
2018-10-07T14:25:17.111Z,6.73
2018-10-07T14:27:46.022Z,5.77
2018-10-07T14:30:15.048Z,8.00
2018-10-07T14:32:44.014Z,7.17
2018-10-07T14:35:13.046Z,9.10
2018-10-07T14:37:42.116Z,5.50
2018-10-07T14:40:11.076Z,8.30
2018-10-07T14:42:40.061Z,8.33
2018-10-07T14:45:09.041Z,9.87
2018-10-07T14:47:38.062Z,7.13
2018-10-07T14:50:07.484Z,22.47
2018-10-07T14:52:36.561Z,6.33
2018-10-07T14:55:05.732Z,10.90
2018-10-07T14:57:35.024Z,6.37
2018-10-07T15:00:06.032Z,5.53
2018-10-07T15:02:35.130Z,7.47
2018-10-07T15:05:04.116Z,5.97
2018-10-07T15:07:33.257Z,7.97
2018-10-07T15:10:02.261Z,14.20
2018-10-07T15:12:31.204Z,10.17
2018-10-07T15:15:00.341Z,10.17
2018-10-07T15:17:29.332Z,9.27
2018-10-07T15:19:58.428Z,6.83
2018-10-07T15:22:27.580Z,8.33
2018-10-07T15:24:56.574Z,8.30
2018-10-07T15:27:25.944Z,9.00
2018-10-07T15:29:54.914Z,8.30
2018-10-07T15:32:24.197Z,11.23
2018-10-07T15:34:53.210Z,13.40
2018-10-07T15:37:22.499Z,15.27
2018-10-07T15:39:51.601Z,15.83
2018-10-07T15:42:20.664Z,13.00
2018-10-07T15:44:49.755Z,13.63
2018-10-07T15:47:18.833Z,13.57
2018-10-07T15:49:50.052Z,12.50
2018-10-07T15:52:19.190Z,18.47
2018-10-07T15:54:51.164Z,14.07
2018-10-07T15:57:20.237Z,14.27
2018-10-07T15:59:49.120Z,15.37
2018-10-07T16:02:18.059Z,10.90
2018-10-07T16:04:47.109Z,14.27
2018-10-07T16:07:16.302Z,15.77
2018-10-07T16:09:46.057Z,12.27
2018-10-07T16:12:15.316Z,13.47
2018-10-07T16:14:44.400Z,12.90
2018-10-07T16:17:13.375Z,10.83
2018-10-07T16:19:42.447Z,12.13
2018-10-07T16:22:11.462Z,14.50
2018-10-07T16:24:40.364Z,11.03
2018-10-07T16:27:09.468Z,14.53
2018-10-07T16:29:38.496Z,13.83
2018-10-07T16:32:07.639Z,13.87
2018-10-07T16:34:36.574Z,16.37
2018-10-07T16:37:05.512Z,13.50
2018-10-07T16:39:34.738Z,12.73
2018-10-07T16:42:03.832Z,15.93
2018-10-07T16:44:32.845Z,13.20
2018-10-07T16:47:01.893Z,12.73
2018-10-07T16:49:31.109Z,9.73
2018-10-07T16:52:00.051Z,12.97
2018-10-07T16:54:29.165Z,8.70
2018-10-07T16:56:58.208Z,14.97
2018-10-07T16:59:27.220Z,9.33
2018-10-07T17:01:56.234Z,8.23
2018-10-07T17:04:25.244Z,6.90
2018-10-07T17:06:54.165Z,8.00
2018-10-07T17:09:23.165Z,7.57
2018-10-07T17:11:52.073Z,11.43
2018-10-07T17:14:21.090Z,8.57
2018-10-07T17:16:50.308Z,7.83
2018-10-07T17:19:19.379Z,8.20
2018-10-07T17:21:48.518Z,7.80
2018-10-07T17:24:17.628Z,9.97
2018-10-07T17:26:46.574Z,8.47
2018-10-07T17:29:15.513Z,9.10
2018-10-07T17:31:44.461Z,10.73
2018-10-07T17:34:13.473Z,9.27
2018-10-07T17:36:42.502Z,9.27
2018-10-07T17:39:12.187Z,9.03
2018-10-07T17:41:41.676Z,8.43
2018-10-07T17:44:10.652Z,10.07
2018-10-07T17:46:39.744Z,12.10
2018-10-07T17:49:08.894Z,12.57
2018-10-07T17:51:37.933Z,10.20
2018-10-07T17:54:07.020Z,11.57
2018-10-07T17:56:35.965Z,13.63
2018-10-07T17:59:05.305Z,12.30
2018-10-07T18:01:34.319Z,12.77
2018-10-07T18:04:03.504Z,10.50
2018-10-07T18:06:32.404Z,13.60
2018-10-07T18:09:01.382Z,9.47
2018-10-07T18:11:30.563Z,12.87
2018-10-07T18:13:59.453Z,10.60
2018-10-07T18:16:28.421Z,12.93
2018-10-07T18:18:57.433Z,12.43
2018-10-07T18:21:26.342Z,10.10
2018-10-07T18:23:55.409Z,8.20
2018-10-07T18:26:24.323Z,9.53
2018-10-07T18:28:53.491Z,9.30
2018-10-07T18:31:22.416Z,9.33
2018-10-07T18:33:51.361Z,13.40
2018-10-07T18:36:20.317Z,8.43
2018-10-07T18:38:49.319Z,9.47
2018-10-07T18:41:18.353Z,9.17
2018-10-07T18:43:47.278Z,10.33
2018-10-07T18:46:16.208Z,7.53
2018-10-07T18:48:45.287Z,8.67
2018-10-07T18:51:14.324Z,7.80
2018-10-07T18:53:43.319Z,9.40
2018-10-07T18:56:12.266Z,7.57
2018-10-07T18:58:41.268Z,8.23
2018-10-07T19:01:10.208Z,10.13
2018-10-07T19:03:39.297Z,7.90
2018-10-07T19:06:08.789Z,6.77
2018-10-07T19:08:37.820Z,9.23
2018-10-07T19:11:06.958Z,9.07
2018-10-07T19:13:35.785Z,9.37
2018-10-07T19:16:04.662Z,8.43
2018-10-07T19:18:33.454Z,9.17
2018-10-07T19:21:02.603Z,11.93
2018-10-07T19:23:31.488Z,11.20
2018-10-07T19:26:00.456Z,12.80
2018-10-07T19:28:29.369Z,9.77
2018-10-07T19:30:58.188Z,8.93
2018-10-07T19:33:27.135Z,10.77
2018-10-07T19:35:56.110Z,10.33
2018-10-07T19:38:24.993Z,10.30
2018-10-07T19:40:54.028Z,13.57
2018-10-07T19:43:22.852Z,13.20
2018-10-07T19:45:52.093Z,11.70
2018-10-07T19:48:21.068Z,10.67
2018-10-07T19:50:49.875Z,12.77
2018-10-07T19:53:18.672Z,11.50
2018-10-07T19:55:47.476Z,9.77
2018-10-07T19:58:16.507Z,11.43
2018-10-07T20:00:45.340Z,9.33
2018-10-07T20:03:14.200Z,11.77
2018-10-07T20:05:43.544Z,13.27
2018-10-07T20:08:12.345Z,10.07
2018-10-07T20:10:41.301Z,13.13
2018-10-07T20:13:10.138Z,11.90
2018-10-07T20:15:39.081Z,8.97
2018-10-07T20:18:08.152Z,9.30
2018-10-07T20:20:37.141Z,10.77
2018-10-07T20:23:06.152Z,9.87
2018-10-07T20:25:35.045Z,10.23
2018-10-07T20:28:04.336Z,8.47
2018-10-07T20:30:33.147Z,10.97
2018-10-07T20:33:02.258Z,12.63
2018-10-07T20:35:31.134Z,9.27
2018-10-07T20:37:59.989Z,13.87
2018-10-07T20:40:28.936Z,11.00
2018-10-07T20:42:57.960Z,14.60
2018-10-07T20:45:26.863Z,9.57
2018-10-07T20:47:55.656Z,9.97
2018-10-07T20:50:25.329Z,8.93
2018-10-07T20:52:53.676Z,16.93
2018-10-07T20:55:22.466Z,15.73
2018-10-07T20:57:51.366Z,10.23
2018-10-07T21:00:20.199Z,8.93
2018-10-07T21:02:49.072Z,13.33
2018-10-07T21:05:18.033Z,12.53
2018-10-07T21:07:47.010Z,13.67
2018-10-07T21:10:15.835Z,11.93
2018-10-07T21:12:44.761Z,12.53
2018-10-07T21:15:13.625Z,13.73
2018-10-07T21:17:42.489Z,12.23
2018-10-07T21:20:11.343Z,12.77
2018-10-07T21:22:40.223Z,11.53
2018-10-07T21:25:09.088Z,14.60
2018-10-07T21:27:37.982Z,13.33
2018-10-07T21:30:07.865Z,12.47
2018-10-07T21:32:36.762Z,14.53
2018-10-07T21:35:05.653Z,11.80
2018-10-07T21:37:34.659Z,14.80
2018-10-07T21:40:03.716Z,13.00
2018-10-07T21:42:32.563Z,12.60
2018-10-07T21:45:01.461Z,12.70
2018-10-07T21:47:30.452Z,11.20
2018-10-07T21:49:59.292Z,13.60
2018-10-07T21:52:28.297Z,14.97
2018-10-07T21:54:57.238Z,12.93
2018-10-07T21:57:26.140Z,16.83
2018-10-07T21:59:55.024Z,16.33
2018-10-07T22:02:23.804Z,13.77
2018-10-07T22:04:52.604Z,13.77
2018-10-07T22:07:21.804Z,13.60
2018-10-07T22:09:50.691Z,12.50
2018-10-07T22:12:19.558Z,15.03
2018-10-07T22:14:48.385Z,13.00
2018-10-07T22:17:17.187Z,13.33
2018-10-07T22:19:46.137Z,12.40
2018-10-07T22:22:15.189Z,19.47
2018-10-07T22:24:44.708Z,12.90
2018-10-07T22:27:13.620Z,12.87
2018-10-07T22:29:42.515Z,15.17
2018-10-07T22:32:11.337Z,13.30
2018-10-07T22:34:40.187Z,15.90
2018-10-07T22:37:09.092Z,17.33
2018-10-07T22:39:37.892Z,13.10
2018-10-07T22:42:06.724Z,12.73
2018-10-07T22:44:35.667Z,13.80
2018-10-07T22:47:04.620Z,14.73
2018-10-07T22:49:33.596Z,14.37
2018-10-07T22:52:02.506Z,15.80
2018-10-07T22:54:31.362Z,14.07
2018-10-07T22:57:00.224Z,13.70
2018-10-07T22:59:29.046Z,14.43
2018-10-07T23:01:58.008Z,11.50
2018-10-07T23:04:26.912Z,12.77
2018-10-07T23:06:55.785Z,14.63
2018-10-07T23:09:24.730Z,12.80
2018-10-07T23:11:53.537Z,16.20
2018-10-07T23:14:22.476Z,13.43
2018-10-07T23:16:51.496Z,14.60
2018-10-07T23:19:20.379Z,13.03
2018-10-07T23:21:49.376Z,13.37
2018-10-07T23:24:18.191Z,12.27
2018-10-07T23:26:47.897Z,11.17
2018-10-07T23:29:16.795Z,15.97
2018-10-07T23:31:45.644Z,13.83
2018-10-07T23:34:14.583Z,17.23
2018-10-07T23:36:43.471Z,17.67
2018-10-07T23:39:12.812Z,15.80
2018-10-07T23:41:41.808Z,14.47
2018-10-07T23:44:10.583Z,12.27
2018-10-07T23:46:39.360Z,12.87
2018-10-07T23:49:08.717Z,12.57
2018-10-07T23:51:37.705Z,12.87
2018-10-07T23:54:06.748Z,11.50
2018-10-07T23:56:35.587Z,12.83
2018-10-07T23:59:04.391Z,11.43
